Centreville, Canada
Current Conditions -  °F | °C
As of 3:53 PM on Saturday 20 Dec 2014 (Local Time) from KHUL Reporting Station
Overcast Overcast  
Wind Chill: 12°   Ceiling: 1700
Heat Index: 21°   Visibility: 10mi
Dew Point: 16°   Wind: 7mph
Humidity: 81%   Direction: 10°N
Pressure: 30.32"   Gusts: NA
Location:  46.43°N, 67.72°W
Report Text: KHUL 201953Z AUTO 01006KT 10SM OVC017 M06/M09 A3032 RMK AO2 SLP278 T10611089
Loading
Personal Weather Stations






























Interactive Weather Map New forecast layout! Learn more

10-Day Weather Forecast

Advertisements
Track Severe Weather on mobile